sensor_id;sensor_type;location;lat;lon;timestamp;pressure;altitude;pressure_sealevel;temperature;humidity
7834;BME280;3962;42.696;23.354;2023-03-16T00:01:39;94283.53;;;3.53;93.04
7834;BME280;3962;42.696;23.354;2023-03-16T00:04:06;94301.22;;;3.51;92.11
7834;BME280;3962;42.696;23.354;2023-03-16T00:06:34;94313.69;;;3.49;92.53
7834;BME280;3962;42.696;23.354;2023-03-16T00:09:02;94307.97;;;3.44;92.70
7834;BME280;3962;42.696;23.354;2023-03-16T00:11:29;94320.34;;;3.53;93.05
7834;BME280;3962;42.696;23.354;2023-03-16T00:13:56;94308.53;;;3.68;92.60
7834;BME280;3962;42.696;23.354;2023-03-16T00:16:23;94326.16;;;3.57;92.21
7834;BME280;3962;42.696;23.354;2023-03-16T00:18:49;94315.72;;;3.66;91.93
7834;BME280;3962;42.696;23.354;2023-03-16T00:21:16;94326.72;;;3.51;92.61
7834;BME280;3962;42.696;23.354;2023-03-16T00:23:44;94325.88;;;3.30;93.34
7834;BME280;3962;42.696;23.354;2023-03-16T00:26:11;94333.94;;;3.38;93.45
7834;BME280;3962;42.696;23.354;2023-03-16T00:28:38;94332.91;;;3.30;93.31
7834;BME280;3962;42.696;23.354;2023-03-16T00:31:09;94327.31;;;3.23;93.58
7834;BME280;3962;42.696;23.354;2023-03-16T00:33:36;94333.44;;;3.24;93.29
7834;BME280;3962;42.696;23.354;2023-03-16T00:36:05;94335.78;;;3.27;93.65
7834;BME280;3962;42.696;23.354;2023-03-16T00:38:35;94331.78;;;3.23;93.28
7834;BME280;3962;42.696;23.354;2023-03-16T00:41:05;94335.59;;;3.19;93.48
7834;BME280;3962;42.696;23.354;2023-03-16T00:43:35;94337.31;;;3.09;93.41
7834;BME280;3962;42.696;23.354;2023-03-16T00:46:06;94353.41;;;3.15;92.88
7834;BME280;3962;42.696;23.354;2023-03-16T00:48:33;94344.56;;;3.16;93.20
7834;BME280;3962;42.696;23.354;2023-03-16T00:51:00;94345.63;;;3.25;94.00
7834;BME280;3962;42.696;23.354;2023-03-16T00:53:28;94348.41;;;3.12;93.48
7834;BME280;3962;42.696;23.354;2023-03-16T00:55:55;94339.38;;;3.05;93.42
7834;BME280;3962;42.696;23.354;2023-03-16T00:58:24;94328.72;;;3.07;94.37
7834;BME280;3962;42.696;23.354;2023-03-16T01:00:50;94356.41;;;3.11;94.44
7834;BME280;3962;42.696;23.354;2023-03-16T01:03:18;94342.44;;;3.10;94.34
7834;BME280;3962;42.696;23.354;2023-03-16T01:05:45;94349.41;;;3.00;94.71
7834;BME280;3962;42.696;23.354;2023-03-16T01:08:11;94342.88;;;2.95;94.33
7834;BME280;3962;42.696;23.354;2023-03-16T01:10:38;94359.47;;;2.95;94.43
7834;BME280;3962;42.696;23.354;2023-03-16T01:13:06;94353.25;;;2.96;95.37
7834;BME280;3962;42.696;23.354;2023-03-16T01:15:34;94360.78;;;2.90;94.59
7834;BME280;3962;42.696;23.354;2023-03-16T01:18:00;94346.34;;;2.84;95.38
7834;BME280;3962;42.696;23.354;2023-03-16T01:20:27;94353.88;;;2.89;95.68
7834;BME280;3962;42.696;23.354;2023-03-16T01:22:54;94360.25;;;3.07;96.16
7834;BME280;3962;42.696;23.354;2023-03-16T01:25:21;94366.03;;;2.90;95.29
7834;BME280;3962;42.696;23.354;2023-03-16T01:27:48;94359.81;;;3.02;95.94
7834;BME280;3962;42.696;23.354;2023-03-16T01:30:15;94356.88;;;2.84;96.23
7834;BME280;3962;42.696;23.354;2023-03-16T01:32:43;94362.66;;;2.99;95.92
7834;BME280;3962;42.696;23.354;2023-03-16T01:35:10;94364.31;;;3.11;95.65
7834;BME280;3962;42.696;23.354;2023-03-16T01:37:36;94353.84;;;3.00;95.08
7834;BME280;3962;42.696;23.354;2023-03-16T01:40:04;94363.88;;;2.95;94.23
7834;BME280;3962;42.696;23.354;2023-03-16T01:42:43;94373.75;;;3.02;94.50
7834;BME280;3962;42.696;23.354;2023-03-16T01:48:11;94370.59;;;2.88;93.94
7834;BME280;3962;42.696;23.354;2023-03-16T01:50:39;94383.97;;;2.74;93.42
7834;BME280;3962;42.696;23.354;2023-03-16T01:53:06;94369.50;;;2.90;93.86
7834;BME280;3962;42.696;23.354;2023-03-16T01:55:33;94380.97;;;2.89;93.56
7834;BME280;3962;42.696;23.354;2023-03-16T01:58:01;94383.69;;;2.99;93.54
7834;BME280;3962;42.696;23.354;2023-03-16T02:00:28;94386.47;;;2.86;92.59
7834;BME280;3962;42.696;23.354;2023-03-16T02:03:00;94393.97;;;2.91;92.61
7834;BME280;3962;42.696;23.354;2023-03-16T02:05:32;94394.94;;;2.90;92.41
7834;BME280;3962;42.696;23.354;2023-03-16T02:08:02;94395.94;;;2.78;92.40
7834;BME280;3962;42.696;23.354;2023-03-16T02:10:29;94388.19;;;2.65;92.52
7834;BME280;3962;42.696;23.354;2023-03-16T02:12:58;94400.13;;;2.80;93.30
7834;BME280;3962;42.696;23.354;2023-03-16T02:15:25;94409.78;;;2.80;94.05
7834;BME280;3962;42.696;23.354;2023-03-16T02:17:52;94396.31;;;2.62;93.72
7834;BME280;3962;42.696;23.354;2023-03-16T02:20:27;94405.63;;;2.66;94.04
7834;BME280;3962;42.696;23.354;2023-03-16T02:22:58;94403.22;;;2.63;94.48
7834;BME280;3962;42.696;23.354;2023-03-16T02:25:30;94409.81;;;2.69;94.97
7834;BME280;3962;42.696;23.354;2023-03-16T02:28:06;94411.72;;;2.56;95.24
7834;BME280;3962;42.696;23.354;2023-03-16T02:30:37;94415.19;;;2.56;96.23
7834;BME280;3962;42.696;23.354;2023-03-16T02:33:04;94417.69;;;2.47;94.93
7834;BME280;3962;42.696;23.354;2023-03-16T02:35:31;94421.25;;;2.35;95.88
7834;BME280;3962;42.696;23.354;2023-03-16T02:37:58;94420.44;;;2.34;96.88
7834;BME280;3962;42.696;23.354;2023-03-16T02:40:28;94418.28;;;2.39;96.92
7834;BME280;3962;42.696;23.354;2023-03-16T02:42:59;94427.72;;;2.42;96.37
7834;BME280;3962;42.696;23.354;2023-03-16T02:45:30;94428.66;;;2.52;97.61
7834;BME280;3962;42.696;23.354;2023-03-16T02:48:01;94428.66;;;2.41;97.21
7834;BME280;3962;42.696;23.354;2023-03-16T02:50:30;94429.53;;;2.41;97.46
7834;BME280;3962;42.696;23.354;2023-03-16T02:52:57;94423.53;;;2.39;98.12
7834;BME280;3962;42.696;23.354;2023-03-16T02:55:24;94421.75;;;2.18;97.60
7834;BME280;3962;42.696;23.354;2023-03-16T02:57:51;94426.78;;;2.21;97.92
7834;BME280;3962;42.696;23.354;2023-03-16T03:00:18;94434.88;;;2.18;99.04
7834;BME280;3962;42.696;23.354;2023-03-16T03:02:46;94432.84;;;2.10;98.87
7834;BME280;3962;42.696;23.354;2023-03-16T03:05:15;94431.78;;;2.13;98.85
7834;BME280;3962;42.696;23.354;2023-03-16T03:07:41;94431.78;;;2.13;99.62
7834;BME280;3962;42.696;23.354;2023-03-16T03:10:09;94443.34;;;2.21;99.86
7834;BME280;3962;42.696;23.354;2023-03-16T03:12:44;94436.41;;;2.31;99.02
7834;BME280;3962;42.696;23.354;2023-03-16T03:15:14;94448.25;;;2.37;99.04
7834;BME280;3962;42.696;23.354;2023-03-16T03:17:42;94444.06;;;2.12;98.95
7834;BME280;3962;42.696;23.354;2023-03-16T03:20:11;94452.88;;;2.11;100.00
7834;BME280;3962;42.696;23.354;2023-03-16T03:22:39;94456.22;;;2.13;99.12
7834;BME280;3962;42.696;23.354;2023-03-16T03:25:07;94448.69;;;1.98;99.39
7834;BME280;3962;42.696;23.354;2023-03-16T03:27:34;94444.75;;;2.03;99.28
7834;BME280;3962;42.696;23.354;2023-03-16T03:30:03;94460.97;;;1.97;99.71
7834;BME280;3962;42.696;23.354;2023-03-16T03:32:29;94445.34;;;2.07;99.50
7834;BME280;3962;42.696;23.354;2023-03-16T03:34:56;94455.72;;;2.08;99.95
7834;BME280;3962;42.696;23.354;2023-03-16T03:37:23;94456.88;;;1.82;99.09
7834;BME280;3962;42.696;23.354;2023-03-16T03:39:50;94457.47;;;1.86;99.82
7834;BME280;3962;42.696;23.354;2023-03-16T03:42:17;94466.28;;;1.85;98.98
7834;BME280;3962;42.696;23.354;2023-03-16T03:44:44;94466.19;;;1.86;100.00
7834;BME280;3962;42.696;23.354;2023-03-16T03:47:12;94468.81;;;1.86;99.53
7834;BME280;3962;42.696;23.354;2023-03-16T03:49:39;94470.22;;;1.79;100.00
7834;BME280;3962;42.696;23.354;2023-03-16T03:52:06;94474.28;;;1.83;100.00
7834;BME280;3962;42.696;23.354;2023-03-16T03:54:33;94488.00;;;1.87;99.81
7834;BME280;3962;42.696;23.354;2023-03-16T03:57:00;94486.47;;;1.95;99.14
7834;BME280;3962;42.696;23.354;2023-03-16T03:59:27;94490.00;;;1.83;99.56
7834;BME280;3962;42.696;23.354;2023-03-16T04:01:54;94499.59;;;1.95;98.78
7834;BME280;3962;42.696;23.354;2023-03-16T04:04:22;94490.50;;;1.88;99.26
7834;BME280;3962;42.696;23.354;2023-03-16T04:06:49;94499.09;;;1.90;98.87
7834;BME280;3962;42.696;23.354;2023-03-16T04:09:16;94493.81;;;1.79;98.15
7834;BME280;3962;42.696;23.354;2023-03-16T04:11:43;94505.38;;;1.77;98.69
7834;BME280;3962;42.696;23.354;2023-03-16T04:14:10;94495.84;;;1.76;98.50
7834;BME280;3962;42.696;23.354;2023-03-16T04:16:37;94499.78;;;1.81;98.75
7834;BME280;3962;42.696;23.354;2023-03-16T04:19:03;94494.88;;;1.77;98.94
7834;BME280;3962;42.696;23.354;2023-03-16T04:21:32;94501.09;;;1.76;98.32
7834;BME280;3962;42.696;23.354;2023-03-16T04:23:58;94499.69;;;1.83;99.06
7834;BME280;3962;42.696;23.354;2023-03-16T04:26:28;94503.28;;;1.93;99.54
7834;BME280;3962;42.696;23.354;2023-03-16T04:28:55;94510.78;;;1.97;98.67
7834;BME280;3962;42.696;23.354;2023-03-16T04:31:21;94509.13;;;1.96;97.72
7834;BME280;3962;42.696;23.354;2023-03-16T04:33:48;94513.75;;;1.82;97.43
7834;BME280;3962;42.696;23.354;2023-03-16T04:36:19;94523.50;;;1.80;97.41
7834;BME280;3962;42.696;23.354;2023-03-16T04:38:49;94521.13;;;1.88;98.11
7834;BME280;3962;42.696;23.354;2023-03-16T04:41:17;94528.34;;;1.97;98.07
7834;BME280;3962;42.696;23.354;2023-03-16T04:43:44;94524.28;;;2.04;98.39
7834;BME280;3962;42.696;23.354;2023-03-16T04:46:11;94537.88;;;1.98;96.86
7834;BME280;3962;42.696;23.354;2023-03-16T04:48:37;94538.97;;;2.06;96.99
7834;BME280;3962;42.696;23.354;2023-03-16T04:51:05;94546.22;;;2.03;96.57
7834;BME280;3962;42.696;23.354;2023-03-16T04:53:32;94547.69;;;2.07;97.22
7834;BME280;3962;42.696;23.354;2023-03-16T04:56:00;94553.81;;;1.95;96.87
7834;BME280;3962;42.696;23.354;2023-03-16T04:58:28;94547.41;;;1.99;96.52
7834;BME280;3962;42.696;23.354;2023-03-16T05:00:55;94558.44;;;2.15;97.05
7834;BME280;3962;42.696;23.354;2023-03-16T05:03:22;94565.47;;;2.14;96.18
7834;BME280;3962;42.696;23.354;2023-03-16T05:05:49;94559.25;;;2.15;96.25
7834;BME280;3962;42.696;23.354;2023-03-16T05:08:16;94556.00;;;2.01;96.34
7834;BME280;3962;42.696;23.354;2023-03-16T05:10:43;94570.91;;;2.00;95.94
7834;BME280;3962;42.696;23.354;2023-03-16T05:13:13;94567.38;;;2.12;95.70
7834;BME280;3962;42.696;23.354;2023-03-16T05:15:40;94566.31;;;2.15;95.27
7834;BME280;3962;42.696;23.354;2023-03-16T05:18:07;94571.75;;;2.12;95.88
7834;BME280;3962;42.696;23.354;2023-03-16T05:20:34;94569.84;;;2.03;94.71
7834;BME280;3962;42.696;23.354;2023-03-16T05:23:00;94575.22;;;2.01;94.94
7834;BME280;3962;42.696;23.354;2023-03-16T05:25:27;94579.03;;;2.08;94.94
7834;BME280;3962;42.696;23.354;2023-03-16T05:27:54;94584.63;;;2.04;94.69
7834;BME280;3962;42.696;23.354;2023-03-16T05:30:22;94589.66;;;2.07;94.79
7834;BME280;3962;42.696;23.354;2023-03-16T05:32:49;94587.50;;;2.12;95.33
7834;BME280;3962;42.696;23.354;2023-03-16T05:35:16;94591.06;;;2.00;94.97
7834;BME280;3962;42.696;23.354;2023-03-16T05:37:43;94588.16;;;1.92;94.92
7834;BME280;3962;42.696;23.354;2023-03-16T05:40:12;94593.78;;;1.98;95.29
7834;BME280;3962;42.696;23.354;2023-03-16T05:42:42;94595.47;;;1.99;94.87
7834;BME280;3962;42.696;23.354;2023-03-16T05:45:10;94597.41;;;2.08;95.00
7834;BME280;3962;42.696;23.354;2023-03-16T05:47:38;94602.53;;;2.10;94.91
7834;BME280;3962;42.696;23.354;2023-03-16T05:50:06;94604.72;;;2.16;94.66
7834;BME280;3962;42.696;23.354;2023-03-16T05:52:35;94604.34;;;2.09;94.08
7834;BME280;3962;42.696;23.354;2023-03-16T05:55:03;94609.78;;;2.06;94.67
7834;BME280;3962;42.696;23.354;2023-03-16T05:57:30;94603.38;;;2.10;95.54
7834;BME280;3962;42.696;23.354;2023-03-16T05:59:58;94614.50;;;1.90;95.43
7834;BME280;3962;42.696;23.354;2023-03-16T06:02:26;94614.78;;;1.98;95.79
7834;BME280;3962;42.696;23.354;2023-03-16T06:04:54;94617.22;;;2.12;96.09
7834;BME280;3962;42.696;23.354;2023-03-16T06:07:21;94613.34;;;1.94;95.86
7834;BME280;3962;42.696;23.354;2023-03-16T06:09:48;94634.19;;;1.96;96.46
7834;BME280;3962;42.696;23.354;2023-03-16T06:12:14;94630.59;;;2.09;96.52
7834;BME280;3962;42.696;23.354;2023-03-16T06:14:41;94631.97;;;2.02;96.16
7834;BME280;3962;42.696;23.354;2023-03-16T06:17:08;94646.25;;;1.98;96.76
7834;BME280;3962;42.696;23.354;2023-03-16T06:19:35;94643.22;;;2.15;97.25
7834;BME280;3962;42.696;23.354;2023-03-16T06:22:03;94640.88;;;2.23;96.55
7834;BME280;3962;42.696;23.354;2023-03-16T06:24:30;94646.09;;;2.47;96.51
7834;BME280;3962;42.696;23.354;2023-03-16T06:26:57;94659.03;;;2.61;96.18
7834;BME280;3962;42.696;23.354;2023-03-16T06:29:23;94653.13;;;2.46;94.74
7834;BME280;3962;42.696;23.354;2023-03-16T06:31:50;94663.34;;;2.62;94.66
7834;BME280;3962;42.696;23.354;2023-03-16T06:34:19;94669.53;;;2.61;93.41
7834;BME280;3962;42.696;23.354;2023-03-16T06:36:46;94664.81;;;2.88;93.27
7834;BME280;3962;42.696;23.354;2023-03-16T06:39:15;94668.97;;;2.79;91.76
7834;BME280;3962;42.696;23.354;2023-03-16T06:41:41;94665.28;;;2.82;92.44
7834;BME280;3962;42.696;23.354;2023-03-16T06:44:08;94676.63;;;2.82;91.37
7834;BME280;3962;42.696;23.354;2023-03-16T06:46:36;94678.50;;;2.69;91.67
7834;BME280;3962;42.696;23.354;2023-03-16T06:49:03;94678.66;;;2.79;91.26
7834;BME280;3962;42.696;23.354;2023-03-16T06:51:30;94674.91;;;2.59;91.79
7834;BME280;3962;42.696;23.354;2023-03-16T06:53:57;94694.53;;;2.77;92.30
7834;BME280;3962;42.696;23.354;2023-03-16T06:56:25;94692.25;;;2.73;91.37
7834;BME280;3962;42.696;23.354;2023-03-16T06:58:52;94699.84;;;2.65;91.38
7834;BME280;3962;42.696;23.354;2023-03-16T07:01:19;94687.94;;;2.61;91.59
7834;BME280;3962;42.696;23.354;2023-03-16T07:03:47;94691.63;;;2.35;91.50
7834;BME280;3962;42.696;23.354;2023-03-16T07:06:14;94699.84;;;2.30;91.33
7834;BME280;3962;42.696;23.354;2023-03-16T07:08:42;94702.41;;;2.43;91.85
7834;BME280;3962;42.696;23.354;2023-03-16T07:11:08;94716.75;;;2.50;92.03
7834;BME280;3962;42.696;23.354;2023-03-16T07:13:37;94710.47;;;2.29;92.66
7834;BME280;3962;42.696;23.354;2023-03-16T07:16:04;94720.41;;;2.36;92.92
7834;BME280;3962;42.696;23.354;2023-03-16T07:18:31;94712.91;;;2.43;93.71
7834;BME280;3962;42.696;23.354;2023-03-16T07:20:58;94713.72;;;2.32;94.05
7834;BME280;3962;42.696;23.354;2023-03-16T07:23:25;94711.63;;;2.48;93.69
7834;BME280;3962;42.696;23.354;2023-03-16T07:25:52;94724.59;;;2.39;94.76
7834;BME280;3962;42.696;23.354;2023-03-16T07:28:19;94725.25;;;2.53;94.67
7834;BME280;3962;42.696;23.354;2023-03-16T07:30:47;94719.31;;;2.62;93.86
7834;BME280;3962;42.696;23.354;2023-03-16T07:33:16;94718.81;;;2.57;92.59
7834;BME280;3962;42.696;23.354;2023-03-16T07:35:43;94734.44;;;2.59;93.34
7834;BME280;3962;42.696;23.354;2023-03-16T07:38:10;94733.09;;;2.77;93.25
7834;BME280;3962;42.696;23.354;2023-03-16T07:40:38;94738.56;;;2.74;92.10
7834;BME280;3962;42.696;23.354;2023-03-16T07:43:06;94732.00;;;2.79;92.15
7834;BME280;3962;42.696;23.354;2023-03-16T07:45:33;94732.69;;;2.70;92.19
7834;BME280;3962;42.696;23.354;2023-03-16T07:48:02;94739.09;;;2.90;92.38
7834;BME280;3962;42.696;23.354;2023-03-16T07:50:29;94745.25;;;3.12;91.86
7834;BME280;3962;42.696;23.354;2023-03-16T07:52:56;94744.22;;;3.37;90.92
7834;BME280;3962;42.696;23.354;2023-03-16T07:55:23;94746.13;;;3.45;90.79
7834;BME280;3962;42.696;23.354;2023-03-16T07:57:50;94749.25;;;3.50;88.77
7834;BME280;3962;42.696;23.354;2023-03-16T08:00:17;94759.78;;;3.50;88.33
7834;BME280;3962;42.696;23.354;2023-03-16T08:02:48;94757.38;;;3.69;88.87
7834;BME280;3962;42.696;23.354;2023-03-16T08:05:16;94743.53;;;3.67;87.39
7834;BME280;3962;42.696;23.354;2023-03-16T08:07:43;94751.66;;;3.75;86.95
7834;BME280;3962;42.696;23.354;2023-03-16T08:10:10;94751.66;;;3.75;86.51
7834;BME280;3962;42.696;23.354;2023-03-16T08:12:37;94752.03;;;3.82;86.29
7834;BME280;3962;42.696;23.354;2023-03-16T08:15:05;94741.25;;;3.52;85.36
7834;BME280;3962;42.696;23.354;2023-03-16T08:17:32;94758.31;;;3.36;86.97
7834;BME280;3962;42.696;23.354;2023-03-16T08:20:01;94755.22;;;3.31;86.71
7834;BME280;3962;42.696;23.354;2023-03-16T08:22:32;94771.00;;;3.31;86.77
7834;BME280;3962;42.696;23.354;2023-03-16T08:25:01;94769.66;;;3.25;86.77
7834;BME280;3962;42.696;23.354;2023-03-16T08:27:28;94779.00;;;3.29;87.91
7834;BME280;3962;42.696;23.354;2023-03-16T08:29:55;94783.03;;;3.33;88.11
7834;BME280;3962;42.696;23.354;2023-03-16T08:32:22;94781.00;;;3.26;87.65
7834;BME280;3962;42.696;23.354;2023-03-16T08:34:49;94772.19;;;3.38;88.53
7834;BME280;3962;42.696;23.354;2023-03-16T08:37:16;94774.81;;;3.38;87.41
7834;BME280;3962;42.696;23.354;2023-03-16T08:39:45;94776.47;;;3.28;85.35
7834;BME280;3962;42.696;23.354;2023-03-16T08:42:11;94783.56;;;3.49;85.65
7834;BME280;3962;42.696;23.354;2023-03-16T08:44:41;94777.72;;;3.67;84.92
7834;BME280;3962;42.696;23.354;2023-03-16T08:47:08;94787.84;;;3.50;81.78
7834;BME280;3962;42.696;23.354;2023-03-16T08:49:35;94777.38;;;3.61;82.97
7834;BME280;3962;42.696;23.354;2023-03-16T08:52:02;94791.97;;;3.76;82.44
7834;BME280;3962;42.696;23.354;2023-03-16T08:54:30;94789.34;;;3.76;81.77
7834;BME280;3962;42.696;23.354;2023-03-16T08:56:59;94793.97;;;3.61;82.29
7834;BME280;3962;42.696;23.354;2023-03-16T08:59:26;94770.19;;;3.63;82.11
7834;BME280;3962;42.696;23.354;2023-03-16T09:01:53;94799.00;;;3.75;82.21
7834;BME280;3962;42.696;23.354;2023-03-16T09:04:19;94799.97;;;3.74;80.99
7834;BME280;3962;42.696;23.354;2023-03-16T09:06:48;94804.28;;;3.75;81.82
7834;BME280;3962;42.696;23.354;2023-03-16T09:09:16;94809.66;;;3.96;81.80
7834;BME280;3962;42.696;23.354;2023-03-16T09:11:43;94799.38;;;3.71;80.29
7834;BME280;3962;42.696;23.354;2023-03-16T09:14:12;94803.41;;;3.53;80.89
7834;BME280;3962;42.696;23.354;2023-03-16T09:16:39;94809.19;;;3.58;81.39
7834;BME280;3962;42.696;23.354;2023-03-16T09:19:06;94815.00;;;3.61;81.48
7834;BME280;3962;42.696;23.354;2023-03-16T09:21:33;94816.56;;;3.53;81.70
7834;BME280;3962;42.696;23.354;2023-03-16T09:24:00;94817.63;;;3.50;82.78
7834;BME280;3962;42.696;23.354;2023-03-16T09:26:28;94806.75;;;3.44;83.51
7834;BME280;3962;42.696;23.354;2023-03-16T09:28:55;94824.66;;;3.39;82.75
7834;BME280;3962;42.696;23.354;2023-03-16T09:31:23;94807.72;;;3.43;82.54
7834;BME280;3962;42.696;23.354;2023-03-16T09:33:50;94804.22;;;3.42;82.43
7834;BME280;3962;42.696;23.354;2023-03-16T09:36:16;94820.16;;;3.52;82.85
7834;BME280;3962;42.696;23.354;2023-03-16T09:38:44;94814.03;;;3.51;83.76
7834;BME280;3962;42.696;23.354;2023-03-16T09:41:25;94812.25;;;3.52;82.72
7834;BME280;3962;42.696;23.354;2023-03-16T09:44:08;94811.66;;;3.59;81.65
7834;BME280;3962;42.696;23.354;2023-03-16T09:46:39;94817.06;;;3.58;81.33
7834;BME280;3962;42.696;23.354;2023-03-16T09:49:09;94816.72;;;3.62;81.30
7834;BME280;3962;42.696;23.354;2023-03-16T09:51:41;94813.13;;;3.63;81.20
7834;BME280;3962;42.696;23.354;2023-03-16T09:54:18;94824.09;;;3.68;81.13
7834;BME280;3962;42.696;23.354;2023-03-16T09:56:47;94825.28;;;3.53;82.23
7834;BME280;3962;42.696;23.354;2023-03-16T09:59:16;94827.09;;;3.64;83.18
7834;BME280;3962;42.696;23.354;2023-03-16T10:01:54;94830.81;;;3.72;83.14
7834;BME280;3962;42.696;23.354;2023-03-16T10:04:36;94828.09;;;3.74;83.70
7834;BME280;3962;42.696;23.354;2023-03-16T10:07:15;94833.00;;;3.89;83.53
7834;BME280;3962;42.696;23.354;2023-03-16T10:09:51;94825.22;;;3.99;83.28
7834;BME280;3962;42.696;23.354;2023-03-16T10:12:21;94838.13;;;3.69;84.03
7834;BME280;3962;42.696;23.354;2023-03-16T10:14:51;94829.25;;;3.70;85.17
7834;BME280;3962;42.696;23.354;2023-03-16T10:17:23;94840.53;;;3.83;84.63
7834;BME280;3962;42.696;23.354;2023-03-16T10:19:53;94832.50;;;3.62;84.30
7834;BME280;3962;42.696;23.354;2023-03-16T10:22:24;94810.63;;;3.84;84.65
7834;BME280;3962;42.696;23.354;2023-03-16T10:25:00;94826.06;;;3.99;83.24
7834;BME280;3962;42.696;23.354;2023-03-16T10:27:30;94815.28;;;4.13;81.76
7834;BME280;3962;42.696;23.354;2023-03-16T10:29:58;94820.69;;;4.23;81.73
7834;BME280;3962;42.696;23.354;2023-03-16T10:32:30;94825.09;;;4.22;80.54
7834;BME280;3962;42.696;23.354;2023-03-16T10:35:02;94820.44;;;4.26;81.42
7834;BME280;3962;42.696;23.354;2023-03-16T10:37:32;94818.50;;;4.28;81.00
7834;BME280;3962;42.696;23.354;2023-03-16T10:40:05;94819.09;;;4.31;81.14
7834;BME280;3962;42.696;23.354;2023-03-16T10:42:34;94816.72;;;4.28;81.01
7834;BME280;3962;42.696;23.354;2023-03-16T10:45:02;94825.03;;;4.55;81.01
7834;BME280;3962;42.696;23.354;2023-03-16T10:47:32;94816.91;;;4.58;79.99
7834;BME280;3962;42.696;23.354;2023-03-16T10:50:10;94821.47;;;4.56;80.18
7834;BME280;3962;42.696;23.354;2023-03-16T10:52:40;94822.53;;;4.65;80.66
7834;BME280;3962;42.696;23.354;2023-03-16T10:55:10;94821.19;;;4.70;80.29
7834;BME280;3962;42.696;23.354;2023-03-16T10:57:42;94818.97;;;4.86;79.58
7834;BME280;3962;42.696;23.354;2023-03-16T11:00:16;94823.13;;;4.68;79.49
7834;BME280;3962;42.696;23.354;2023-03-16T11:02:47;94823.00;;;4.59;79.81
7834;BME280;3962;42.696;23.354;2023-03-16T11:05:25;94819.50;;;4.69;79.40
7834;BME280;3962;42.696;23.354;2023-03-16T11:08:01;94823.59;;;4.62;79.73
7834;BME280;3962;42.696;23.354;2023-03-16T11:10:36;94822.59;;;4.32;79.76
7834;BME280;3962;42.696;23.354;2023-03-16T11:13:10;94833.00;;;4.33;80.10
7834;BME280;3962;42.696;23.354;2023-03-16T11:15:44;94824.97;;;4.35;79.26
7834;BME280;3962;42.696;23.354;2023-03-16T11:18:25;94819.81;;;4.44;79.01
7834;BME280;3962;42.696;23.354;2023-03-16T11:20:55;94815.38;;;4.45;77.87
7834;BME280;3962;42.696;23.354;2023-03-16T11:23:29;94808.56;;;4.42;77.94
7834;BME280;3962;42.696;23.354;2023-03-16T11:25:59;94822.28;;;4.57;78.23
7834;BME280;3962;42.696;23.354;2023-03-16T11:28:34;94820.84;;;4.64;77.60
7834;BME280;3962;42.696;23.354;2023-03-16T11:31:09;94829.81;;;4.61;77.23
7834;BME280;3962;42.696;23.354;2023-03-16T11:33:40;94830.44;;;4.43;77.31
7834;BME280;3962;42.696;23.354;2023-03-16T11:36:19;94824.38;;;4.42;77.16
7834;BME280;3962;42.696;23.354;2023-03-16T11:38:59;94837.41;;;4.44;77.80
7834;BME280;3962;42.696;23.354;2023-03-16T11:41:37;94836.00;;;4.29;76.54
7834;BME280;3962;42.696;23.354;2023-03-16T11:44:13;94818.63;;;4.26;77.63
7834;BME280;3962;42.696;23.354;2023-03-16T11:46:47;94819.69;;;4.35;76.62
7834;BME280;3962;42.696;23.354;2023-03-16T11:49:33;94825.69;;;4.37;77.46
7834;BME280;3962;42.696;23.354;2023-03-16T11:52:08;94825.22;;;4.32;77.92
7834;BME280;3962;42.696;23.354;2023-03-16T11:54:45;94826.53;;;4.37;77.31
7834;BME280;3962;42.696;23.354;2023-03-16T11:57:35;94833.22;;;4.41;78.05
7834;BME280;3962;42.696;23.354;2023-03-16T12:00:12;94828.56;;;4.34;77.99
7834;BME280;3962;42.696;23.354;2023-03-16T12:02:58;94835.78;;;4.21;
7834;BME280;3962;42.696;23.354;2023-03-16T12:05:43;94841.72;;;4.34;77.93
7834;BME280;3962;42.696;23.354;2023-03-16T12:08:39;94838.38;;;4.32;78.68
7834;BME280;3962;42.696;23.354;2023-03-16T12:11:11;94838.00;;;4.36;78.87
7834;BME280;3962;42.696;23.354;2023-03-16T12:13:58;94836.78;;;4.40;77.91
7834;BME280;3962;42.696;23.354;2023-03-16T12:16:29;94844.75;;;4.18;78.82
7834;BME280;3962;42.696;23.354;2023-03-16T12:18:59;94854.31;;;4.19;79.26
7834;BME280;3962;42.696;23.354;2023-03-16T12:21:32;94849.16;;;4.29;79.27
7834;BME280;3962;42.696;23.354;2023-03-16T12:24:02;94857.06;;;4.07;80.02
7834;BME280;3962;42.696;23.354;2023-03-16T12:26:33;94850.72;;;4.09;79.96
7834;BME280;3962;42.696;23.354;2023-03-16T12:29:07;94868.31;;;3.98;80.24
7834;BME280;3962;42.696;23.354;2023-03-16T12:31:42;94872.97;;;3.94;80.74
7834;BME280;3962;42.696;23.354;2023-03-16T12:34:21;94855.38;;;4.06;81.33
7834;BME280;3962;42.696;23.354;2023-03-16T12:37:04;94867.59;;;4.07;80.41
7834;BME280;3962;42.696;23.354;2023-03-16T12:39:43;94860.66;;;4.17;80.25
7834;BME280;3962;42.696;23.354;2023-03-16T12:42:24;94867.25;;;4.33;80.27
7834;BME280;3962;42.696;23.354;2023-03-16T12:44:56;94869.38;;;4.39;79.61
7834;BME280;3962;42.696;23.354;2023-03-16T12:47:31;94871.66;;;4.00;80.38
7834;BME280;3962;42.696;23.354;2023-03-16T12:50:05;94881.72;;;4.06;80.44
7834;BME280;3962;42.696;23.354;2023-03-16T12:52:41;94873.94;;;3.93;79.91
7834;BME280;3962;42.696;23.354;2023-03-16T12:55:12;94878.59;;;3.90;80.61
7834;BME280;3962;42.696;23.354;2023-03-16T12:57:41;94880.59;;;3.86;81.64
7834;BME280;3962;42.696;23.354;2023-03-16T13:00:10;94883.09;;;3.77;81.63
7834;BME280;3962;42.696;23.354;2023-03-16T13:02:41;94882.22;;;3.54;83.55
7834;BME280;3962;42.696;23.354;2023-03-16T13:05:12;94890.09;;;3.54;84.78
7834;BME280;3962;42.696;23.354;2023-03-16T13:07:48;94874.38;;;3.42;85.62
7834;BME280;3962;42.696;23.354;2023-03-16T13:10:19;94881.34;;;3.54;86.51
7834;BME280;3962;42.696;23.354;2023-03-16T13:12:47;94879.44;;;3.45;87.93
7834;BME280;3962;42.696;23.354;2023-03-16T13:15:27;94899.06;;;3.29;87.61
7834;BME280;3962;42.696;23.354;2023-03-16T13:18:19;94891.31;;;3.27;89.47
7834;BME280;3962;42.696;23.354;2023-03-16T13:20:53;94893.38;;;3.35;89.40
7834;BME280;3962;42.696;23.354;2023-03-16T13:23:24;94897.50;;;3.49;89.74
7834;BME280;3962;42.696;23.354;2023-03-16T13:26:13;94908.53;;;3.65;89.76
7834;BME280;3962;42.696;23.354;2023-03-16T13:28:41;94901.75;;;3.74;89.66
7834;BME280;3962;42.696;23.354;2023-03-16T13:31:19;94912.38;;;3.72;89.10
7834;BME280;3962;42.696;23.354;2023-03-16T13:33:50;94908.28;;;3.68;89.78
7834;BME280;3962;42.696;23.354;2023-03-16T13:36:19;94904.69;;;3.69;89.10
7834;BME280;3962;42.696;23.354;2023-03-16T13:38:56;94909.50;;;3.64;88.77